sensor_id;sensor_type;location;lat;lon;timestamp;P1;durP1;ratioP1;P2;durP2;ratioP2
67130;SDS011;54051;53.464;49.532;2022-10-29T00:00:25;7.20;;;3.13;;
67130;SDS011;54051;53.464;49.532;2022-10-29T00:02:51;6.55;;;3.20;;
67130;SDS011;54051;53.464;49.532;2022-10-29T00:05:17;7.07;;;3.33;;
67130;SDS011;54051;53.464;49.532;2022-10-29T00:07:43;6.40;;;2.88;;
67130;SDS011;54051;53.464;49.532;2022-10-29T00:10:09;6.72;;;2.80;;
67130;SDS011;54051;53.464;49.532;2022-10-29T00:12:35;6.75;;;3.30;;
67130;SDS011;54051;53.464;49.532;2022-10-29T00:15:01;6.93;;;3.00;;
67130;SDS011;54051;53.464;49.532;2022-10-29T00:17:28;6.18;;;2.75;;
67130;SDS011;54051;53.464;49.532;2022-10-29T00:19:54;7.00;;;3.20;;
67130;SDS011;54051;53.464;49.532;2022-10-29T00:22:20;7.20;;;3.20;;
67130;SDS011;54051;53.464;49.532;2022-10-29T00:24:46;8.80;;;3.08;;
67130;SDS011;54051;53.464;49.532;2022-10-29T00:27:12;7.03;;;3.30;;
67130;SDS011;54051;53.464;49.532;2022-10-29T00:29:38;7.93;;;3.10;;
67130;SDS011;54051;53.464;49.532;2022-10-29T00:32:04;6.10;;;2.90;;
67130;SDS011;54051;53.464;49.532;2022-10-29T00:34:30;5.95;;;2.90;;
67130;SDS011;54051;53.464;49.532;2022-10-29T00:36:56;6.70;;;3.10;;
67130;SDS011;54051;53.464;49.532;2022-10-29T00:39:22;6.95;;;2.97;;
67130;SDS011;54051;53.464;49.532;2022-10-29T00:41:48;6.95;;;2.90;;
67130;SDS011;54051;53.464;49.532;2022-10-29T00:46:40;6.85;;;2.63;;
67130;SDS011;54051;53.464;49.532;2022-10-29T00:49:08;5.45;;;2.45;;
67130;SDS011;54051;53.464;49.532;2022-10-29T00:51:35;6.53;;;2.70;;
67130;SDS011;54051;53.464;49.532;2022-10-29T00:54:03;4.80;;;2.40;;
67130;SDS011;54051;53.464;49.532;2022-10-29T00:56:37;5.13;;;2.13;;
67130;SDS011;54051;53.464;49.532;2022-10-29T00:59:07;5.20;;;2.28;;
67130;SDS011;54051;53.464;49.532;2022-10-29T01:01:34;4.80;;;2.20;;
67130;SDS011;54051;53.464;49.532;2022-10-29T01:04:01;4.85;;;1.90;;
67130;SDS011;54051;53.464;49.532;2022-10-29T01:06:28;3.97;;;1.98;;
67130;SDS011;54051;53.464;49.532;2022-10-29T01:08:57;4.15;;;1.90;;
67130;SDS011;54051;53.464;49.532;2022-10-29T01:14:12;4.38;;;1.98;;
67130;SDS011;54051;53.464;49.532;2022-10-29T01:16:54;3.90;;;1.70;;
67130;SDS011;54051;53.464;49.532;2022-10-29T01:46:37;5.60;;;1.90;;
67130;SDS011;54051;53.464;49.532;2022-10-29T01:49:12;4.78;;;1.90;;
67130;SDS011;54051;53.464;49.532;2022-10-29T01:51:43;4.40;;;1.90;;
67130;SDS011;54051;53.464;49.532;2022-10-29T01:54:10;4.20;;;1.92;;
67130;SDS011;54051;53.464;49.532;2022-10-29T01:56:37;4.60;;;2.10;;
67130;SDS011;54051;53.464;49.532;2022-10-29T01:59:04;5.22;;;2.00;;
67130;SDS011;54051;53.464;49.532;2022-10-29T02:01:57;4.72;;;2.00;;
67130;SDS011;54051;53.464;49.532;2022-10-29T02:09:56;4.47;;;2.00;;
67130;SDS011;54051;53.464;49.532;2022-10-29T02:12:41;5.50;;;1.90;;
67130;SDS011;54051;53.464;49.532;2022-10-29T02:18:04;4.15;;;1.70;;
67130;SDS011;54051;53.464;49.532;2022-10-29T02:20:32;4.90;;;1.83;;
67130;SDS011;54051;53.464;49.532;2022-10-29T02:22:58;4.20;;;1.67;;
67130;SDS011;54051;53.464;49.532;2022-10-29T02:25:25;4.13;;;1.70;;
67130;SDS011;54051;53.464;49.532;2022-10-29T02:30:18;3.78;;;1.55;;
67130;SDS011;54051;53.464;49.532;2022-10-29T02:32:44;4.47;;;1.85;;
67130;SDS011;54051;53.464;49.532;2022-10-29T02:35:10;3.70;;;1.52;;
67130;SDS011;54051;53.464;49.532;2022-10-29T02:37:36;3.90;;;1.50;;
67130;SDS011;54051;53.464;49.532;2022-10-29T02:40:03;3.90;;;1.50;;
67130;SDS011;54051;53.464;49.532;2022-10-29T02:42:29;3.90;;;1.42;;
67130;SDS011;54051;53.464;49.532;2022-10-29T02:44:55;4.50;;;1.67;;
67130;SDS011;54051;53.464;49.532;2022-10-29T02:47:21;3.67;;;1.48;;
67130;SDS011;54051;53.464;49.532;2022-10-29T02:49:47;4.00;;;1.70;;
67130;SDS011;54051;53.464;49.532;2022-10-29T02:52:13;4.68;;;1.80;;
67130;SDS011;54051;53.464;49.532;2022-10-29T02:54:39;3.90;;;1.60;;
67130;SDS011;54051;53.464;49.532;2022-10-29T02:57:05;4.68;;;2.17;;
67130;SDS011;54051;53.464;49.532;2022-10-29T02:59:31;4.40;;;1.80;;
67130;SDS011;54051;53.464;49.532;2022-10-29T03:01:57;3.80;;;1.52;;
67130;SDS011;54051;53.464;49.532;2022-10-29T03:04:23;4.50;;;1.65;;
67130;SDS011;54051;53.464;49.532;2022-10-29T03:06:49;4.10;;;1.60;;
67130;SDS011;54051;53.464;49.532;2022-10-29T03:09:15;3.80;;;1.38;;
67130;SDS011;54051;53.464;49.532;2022-10-29T03:11:41;4.07;;;1.50;;
67130;SDS011;54051;53.464;49.532;2022-10-29T03:14:07;3.60;;;1.48;;
67130;SDS011;54051;53.464;49.532;2022-10-29T03:16:33;3.92;;;1.60;;
67130;SDS011;54051;53.464;49.532;2022-10-29T03:18:59;3.83;;;1.50;;
67130;SDS011;54051;53.464;49.532;2022-10-29T03:21:25;3.90;;;1.48;;
67130;SDS011;54051;53.464;49.532;2022-10-29T03:23:51;3.42;;;1.38;;
67130;SDS011;54051;53.464;49.532;2022-10-29T03:26:17;3.50;;;1.40;;
67130;SDS011;54051;53.464;49.532;2022-10-29T03:28:49;4.20;;;1.70;;
67130;SDS011;54051;53.464;49.532;2022-10-29T03:31:15;3.80;;;1.35;;
67130;SDS011;54051;53.464;49.532;2022-10-29T03:33:41;3.90;;;1.42;;
67130;SDS011;54051;53.464;49.532;2022-10-29T03:36:07;3.55;;;1.30;;
67130;SDS011;54051;53.464;49.532;2022-10-29T03:38:33;3.75;;;1.40;;
67130;SDS011;54051;53.464;49.532;2022-10-29T03:40:59;3.85;;;1.40;;
67130;SDS011;54051;53.464;49.532;2022-10-29T03:43:26;3.35;;;1.25;;
67130;SDS011;54051;53.464;49.532;2022-10-29T03:45:53;3.78;;;1.40;;
67130;SDS011;54051;53.464;49.532;2022-10-29T03:48:20;3.85;;;1.33;;
67130;SDS011;54051;53.464;49.532;2022-10-29T03:50:53;3.55;;;1.35;;
67130;SDS011;54051;53.464;49.532;2022-10-29T03:53:21;3.47;;;1.30;;
67130;SDS011;54051;53.464;49.532;2022-10-29T03:55:48;3.43;;;1.27;;
67130;SDS011;54051;53.464;49.532;2022-10-29T03:58:16;3.35;;;1.20;;
67130;SDS011;54051;53.464;49.532;2022-10-29T04:00:42;3.65;;;1.38;;
67130;SDS011;54051;53.464;49.532;2022-10-29T04:03:08;3.70;;;1.40;;
67130;SDS011;54051;53.464;49.532;2022-10-29T04:05:34;3.20;;;1.15;;
67130;SDS011;54051;53.464;49.532;2022-10-29T04:08:00;3.53;;;1.27;;
67130;SDS011;54051;53.464;49.532;2022-10-29T04:10:26;3.30;;;1.15;;
67130;SDS011;54051;53.464;49.532;2022-10-29T04:12:52;3.67;;;1.10;;
67130;SDS011;54051;53.464;49.532;2022-10-29T04:15:18;3.00;;;1.20;;
67130;SDS011;54051;53.464;49.532;2022-10-29T04:17:44;3.20;;;1.10;;
67130;SDS011;54051;53.464;49.532;2022-10-29T04:20:10;4.60;;;1.40;;
67130;SDS011;54051;53.464;49.532;2022-10-29T04:22:36;3.08;;;1.10;;
67130;SDS011;54051;53.464;49.532;2022-10-29T04:25:02;4.40;;;1.70;;
67130;SDS011;54051;53.464;49.532;2022-10-29T04:27:28;3.55;;;1.30;;
67130;SDS011;54051;53.464;49.532;2022-10-29T04:29:56;3.40;;;1.20;;
67130;SDS011;54051;53.464;49.532;2022-10-29T04:32:22;3.88;;;1.35;;
67130;SDS011;54051;53.464;49.532;2022-10-29T04:34:48;3.65;;;1.15;;
67130;SDS011;54051;53.464;49.532;2022-10-29T04:37:14;3.55;;;1.25;;
67130;SDS011;54051;53.464;49.532;2022-10-29T04:39:39;3.00;;;0.98;;
67130;SDS011;54051;53.464;49.532;2022-10-29T04:42:05;2.97;;;1.10;;
67130;SDS011;54051;53.464;49.532;2022-10-29T04:44:34;3.42;;;1.17;;
67130;SDS011;54051;53.464;49.532;2022-10-29T04:47:00;3.40;;;1.23;;
67130;SDS011;54051;53.464;49.532;2022-10-29T04:49:26;3.08;;;1.10;;
67130;SDS011;54051;53.464;49.532;2022-10-29T04:51:52;3.88;;;1.30;;
67130;SDS011;54051;53.464;49.532;2022-10-29T04:54:18;3.20;;;1.20;;
67130;SDS011;54051;53.464;49.532;2022-10-29T04:56:44;3.58;;;1.20;;
67130;SDS011;54051;53.464;49.532;2022-10-29T04:59:10;3.78;;;1.27;;
67130;SDS011;54051;53.464;49.532;2022-10-29T05:01:36;3.20;;;1.10;;
67130;SDS011;54051;53.464;49.532;2022-10-29T05:04:02;3.28;;;1.15;;
67130;SDS011;54051;53.464;49.532;2022-10-29T05:06:28;3.88;;;1.13;;
67130;SDS011;54051;53.464;49.532;2022-10-29T05:08:54;3.80;;;1.40;;
67130;SDS011;54051;53.464;49.532;2022-10-29T05:11:20;3.28;;;1.20;;
67130;SDS011;54051;53.464;49.532;2022-10-29T05:13:46;3.60;;;1.20;;
67130;SDS011;54051;53.464;49.532;2022-10-29T05:16:12;3.38;;;1.10;;
67130;SDS011;54051;53.464;49.532;2022-10-29T05:18:37;3.33;;;1.10;;
67130;SDS011;54051;53.464;49.532;2022-10-29T05:21:04;3.10;;;1.10;;
67130;SDS011;54051;53.464;49.532;2022-10-29T05:23:30;3.28;;;1.20;;
67130;SDS011;54051;53.464;49.532;2022-10-29T05:25:56;3.65;;;1.27;;
67130;SDS011;54051;53.464;49.532;2022-10-29T05:28:22;3.33;;;1.20;;
67130;SDS011;54051;53.464;49.532;2022-10-29T05:30:49;2.97;;;1.10;;
67130;SDS011;54051;53.464;49.532;2022-10-29T05:33:19;3.88;;;1.25;;
67130;SDS011;54051;53.464;49.532;2022-10-29T05:35:46;3.40;;;1.20;;
67130;SDS011;54051;53.464;49.532;2022-10-29T05:38:13;2.58;;;0.98;;
67130;SDS011;54051;53.464;49.532;2022-10-29T05:40:40;2.63;;;0.95;;
67130;SDS011;54051;53.464;49.532;2022-10-29T05:43:12;3.10;;;1.10;;
67130;SDS011;54051;53.464;49.532;2022-10-29T05:45:40;3.10;;;1.10;;
67130;SDS011;54051;53.464;49.532;2022-10-29T05:48:06;3.20;;;1.03;;
67130;SDS011;54051;53.464;49.532;2022-10-29T05:50:32;2.95;;;1.10;;
67130;SDS011;54051;53.464;49.532;2022-10-29T05:52:59;2.97;;;1.10;;
67130;SDS011;54051;53.464;49.532;2022-10-29T05:55:30;3.53;;;1.30;;
67130;SDS011;54051;53.464;49.532;2022-10-29T05:58:04;3.47;;;1.15;;
67130;SDS011;54051;53.464;49.532;2022-10-29T06:00:32;3.45;;;1.20;;
67130;SDS011;54051;53.464;49.532;2022-10-29T06:03:00;3.22;;;1.25;;
67130;SDS011;54051;53.464;49.532;2022-10-29T06:05:26;3.58;;;1.15;;
67130;SDS011;54051;53.464;49.532;2022-10-29T06:07:56;3.53;;;1.30;;
67130;SDS011;54051;53.464;49.532;2022-10-29T06:10:23;3.80;;;1.48;;
67130;SDS011;54051;53.464;49.532;2022-10-29T06:12:50;4.68;;;1.50;;
67130;SDS011;54051;53.464;49.532;2022-10-29T06:15:16;3.70;;;1.40;;
67130;SDS011;54051;53.464;49.532;2022-10-29T06:17:43;3.73;;;1.50;;
67130;SDS011;54051;53.464;49.532;2022-10-29T06:20:11;4.32;;;1.50;;
67130;SDS011;54051;53.464;49.532;2022-10-29T06:22:38;5.00;;;1.75;;
67130;SDS011;54051;53.464;49.532;2022-10-29T06:25:04;3.60;;;1.52;;
67130;SDS011;54051;53.464;49.532;2022-10-29T06:30:29;3.55;;;1.45;;
67130;SDS011;54051;53.464;49.532;2022-10-29T06:35:22;4.57;;;1.70;;
67130;SDS011;54051;53.464;49.532;2022-10-29T06:37:48;4.53;;;1.92;;
67130;SDS011;54051;53.464;49.532;2022-10-29T06:40:14;4.60;;;1.77;;
67130;SDS011;54051;53.464;49.532;2022-10-29T06:42:40;4.40;;;1.83;;
67130;SDS011;54051;53.464;49.532;2022-10-29T06:45:06;4.45;;;1.77;;
67130;SDS011;54051;53.464;49.532;2022-10-29T06:47:42;4.50;;;1.70;;
67130;SDS011;54051;53.464;49.532;2022-10-29T06:50:10;4.40;;;1.77;;
67130;SDS011;54051;53.464;49.532;2022-10-29T06:52:37;4.60;;;2.10;;
67130;SDS011;54051;53.464;49.532;2022-10-29T06:55:04;4.38;;;1.67;;
67130;SDS011;54051;53.464;49.532;2022-10-29T06:57:30;4.13;;;1.70;;
67130;SDS011;54051;53.464;49.532;2022-10-29T06:59:57;4.78;;;2.17;;
67130;SDS011;54051;53.464;49.532;2022-10-29T07:02:23;4.63;;;2.10;;
67130;SDS011;54051;53.464;49.532;2022-10-29T07:04:49;4.03;;;1.60;;
67130;SDS011;54051;53.464;49.532;2022-10-29T07:07:15;3.53;;;1.50;;
67130;SDS011;54051;53.464;49.532;2022-10-29T07:09:41;4.10;;;1.67;;
67130;SDS011;54051;53.464;49.532;2022-10-29T07:12:08;3.90;;;1.70;;
67130;SDS011;54051;53.464;49.532;2022-10-29T07:14:34;6.57;;;2.60;;
67130;SDS011;54051;53.464;49.532;2022-10-29T07:17:00;4.28;;;1.95;;
67130;SDS011;54051;53.464;49.532;2022-10-29T07:19:26;4.43;;;1.80;;
67130;SDS011;54051;53.464;49.532;2022-10-29T07:21:52;6.10;;;2.50;;
67130;SDS011;54051;53.464;49.532;2022-10-29T07:24:18;4.60;;;1.95;;
67130;SDS011;54051;53.464;49.532;2022-10-29T07:26:44;4.53;;;1.90;;
67130;SDS011;54051;53.464;49.532;2022-10-29T07:29:10;4.65;;;1.90;;
67130;SDS011;54051;53.464;49.532;2022-10-29T07:31:36;4.20;;;1.77;;
67130;SDS011;54051;53.464;49.532;2022-10-29T07:34:02;4.93;;;1.80;;
67130;SDS011;54051;53.464;49.532;2022-10-29T07:36:31;4.00;;;1.60;;
67130;SDS011;54051;53.464;49.532;2022-10-29T07:38:57;5.57;;;2.08;;
67130;SDS011;54051;53.464;49.532;2022-10-29T07:41:23;4.45;;;1.80;;
67130;SDS011;54051;53.464;49.532;2022-10-29T07:43:49;4.40;;;1.80;;
67130;SDS011;54051;53.464;49.532;2022-10-29T07:46:15;3.88;;;1.60;;
67130;SDS011;54051;53.464;49.532;2022-10-29T07:48:41;4.40;;;1.85;;
67130;SDS011;54051;53.464;49.532;2022-10-29T07:51:07;6.38;;;2.00;;
67130;SDS011;54051;53.464;49.532;2022-10-29T07:53:33;3.90;;;1.80;;
67130;SDS011;54051;53.464;49.532;2022-10-29T07:55:59;4.65;;;1.77;;
67130;SDS011;54051;53.464;49.532;2022-10-29T07:58:25;6.00;;;2.10;;
67130;SDS011;54051;53.464;49.532;2022-10-29T08:00:51;4.47;;;2.05;;
67130;SDS011;54051;53.464;49.532;2022-10-29T08:03:18;4.63;;;2.28;;
67130;SDS011;54051;53.464;49.532;2022-10-29T08:05:44;4.20;;;1.73;;
67130;SDS011;54051;53.464;49.532;2022-10-29T08:08:11;5.38;;;1.77;;
67130;SDS011;54051;53.464;49.532;2022-10-29T08:10:38;3.97;;;1.50;;
67130;SDS011;54051;53.464;49.532;2022-10-29T08:13:04;4.05;;;1.73;;
67130;SDS011;54051;53.464;49.532;2022-10-29T08:15:31;5.63;;;2.72;;
67130;SDS011;54051;53.464;49.532;2022-10-29T08:17:59;4.10;;;1.70;;
67130;SDS011;54051;53.464;49.532;2022-10-29T08:20:27;3.97;;;1.58;;
67130;SDS011;54051;53.464;49.532;2022-10-29T08:22:53;3.70;;;1.50;;
67130;SDS011;54051;53.464;49.532;2022-10-29T08:25:19;3.40;;;1.33;;
67130;SDS011;54051;53.464;49.532;2022-10-29T08:27:56;3.60;;;1.50;;
67130;SDS011;54051;53.464;49.532;2022-10-29T08:30:23;3.97;;;1.50;;
67130;SDS011;54051;53.464;49.532;2022-10-29T08:32:49;4.07;;;1.48;;
67130;SDS011;54051;53.464;49.532;2022-10-29T08:35:15;4.20;;;1.70;;
67130;SDS011;54051;53.464;49.532;2022-10-29T08:37:42;4.30;;;1.90;;
67130;SDS011;54051;53.464;49.532;2022-10-29T08:40:12;3.90;;;1.67;;
67130;SDS011;54051;53.464;49.532;2022-10-29T08:45:34;4.63;;;1.90;;
67130;SDS011;54051;53.464;49.532;2022-10-29T08:53:47;4.88;;;2.08;;
67130;SDS011;54051;53.464;49.532;2022-10-29T08:56:17;4.60;;;2.00;;
67130;SDS011;54051;53.464;49.532;2022-10-29T09:01:36;4.85;;;2.10;;
67130;SDS011;54051;53.464;49.532;2022-10-29T09:04:02;4.53;;;1.88;;
67130;SDS011;54051;53.464;49.532;2022-10-29T09:09:22;4.82;;;2.10;;
67130;SDS011;54051;53.464;49.532;2022-10-29T09:25:48;4.97;;;1.80;;
67130;SDS011;54051;53.464;49.532;2022-10-29T09:31:23;5.47;;;2.15;;
67130;SDS011;54051;53.464;49.532;2022-10-29T09:33:54;5.22;;;2.13;;
67130;SDS011;54051;53.464;49.532;2022-10-29T09:36:26;3.72;;;1.45;;
67130;SDS011;54051;53.464;49.532;2022-10-29T09:38:56;4.22;;;1.50;;
67130;SDS011;54051;53.464;49.532;2022-10-29T09:41:24;3.40;;;1.30;;
67130;SDS011;54051;53.464;49.532;2022-10-29T09:44:01;4.13;;;1.58;;
67130;SDS011;54051;53.464;49.532;2022-10-29T09:50:02;3.35;;;1.20;;
67130;SDS011;54051;53.464;49.532;2022-10-29T09:52:29;3.83;;;1.45;;
67130;SDS011;54051;53.464;49.532;2022-10-29T09:54:58;3.05;;;1.10;;
67130;SDS011;54051;53.464;49.532;2022-10-29T09:57:27;3.10;;;1.20;;
67130;SDS011;54051;53.464;49.532;2022-10-29T09:59:59;3.83;;;1.55;;
67130;SDS011;54051;53.464;49.532;2022-10-29T10:02:32;3.75;;;1.50;;
67130;SDS011;54051;53.464;49.532;2022-10-29T10:05:07;3.90;;;1.50;;
67130;SDS011;54051;53.464;49.532;2022-10-29T10:07:38;4.35;;;1.60;;
67130;SDS011;54051;53.464;49.532;2022-10-29T10:10:05;4.60;;;1.70;;
67130;SDS011;54051;53.464;49.532;2022-10-29T10:12:44;3.55;;;1.45;;
67130;SDS011;54051;53.464;49.532;2022-10-29T10:15:17;4.47;;;1.63;;
67130;SDS011;54051;53.464;49.532;2022-10-29T10:20:28;4.53;;;1.70;;
67130;SDS011;54051;53.464;49.532;2022-10-29T10:22:59;4.15;;;1.70;;
67130;SDS011;54051;53.464;49.532;2022-10-29T10:25:30;4.18;;;1.48;;
67130;SDS011;54051;53.464;49.532;2022-10-29T10:28:26;3.30;;;1.20;;
67130;SDS011;54051;53.464;49.532;2022-10-29T10:31:11;5.57;;;2.08;;
67130;SDS011;54051;53.464;49.532;2022-10-29T10:36:19;4.22;;;1.67;;
67130;SDS011;54051;53.464;49.532;2022-10-29T10:38:51;3.90;;;1.60;;
67130;SDS011;54051;53.464;49.532;2022-10-29T10:41:23;3.85;;;1.40;;
67130;SDS011;54051;53.464;49.532;2022-10-29T10:43:53;3.67;;;1.20;;
67130;SDS011;54051;53.464;49.532;2022-10-29T10:46:34;4.28;;;1.10;;
67130;SDS011;54051;53.464;49.532;2022-10-29T10:51:36;3.15;;;1.10;;
67130;SDS011;54051;53.464;49.532;2022-10-29T10:59:56;5.15;;;1.50;;
67130;SDS011;54051;53.464;49.532;2022-10-29T11:05:10;2.50;;;0.80;;
67130;SDS011;54051;53.464;49.532;2022-10-29T11:07:41;4.15;;;1.25;;
67130;SDS011;54051;53.464;49.532;2022-10-29T11:10:13;4.00;;;1.30;;
67130;SDS011;54051;53.464;49.532;2022-10-29T11:12:41;3.28;;;1.10;;
67130;SDS011;54051;53.464;49.532;2022-10-29T11:17:53;3.92;;;1.20;;
67130;SDS011;54051;53.464;49.532;2022-10-29T11:20:25;3.28;;;0.88;;
67130;SDS011;54051;53.464;49.532;2022-10-29T11:25:42;3.97;;;1.20;;
67130;SDS011;54051;53.464;49.532;2022-10-29T11:28:25;3.33;;;1.10;;
67130;SDS011;54051;53.464;49.532;2022-10-29T11:37:57;3.10;;;1.00;;
67130;SDS011;54051;53.464;49.532;2022-10-29T11:43:29;3.40;;;1.30;;
67130;SDS011;54051;53.464;49.532;2022-10-29T11:46:05;3.70;;;1.40;;
67130;SDS011;54051;53.464;49.532;2022-10-29T11:51:45;5.72;;;1.50;;
67130;SDS011;54051;53.464;49.532;2022-10-29T11:57:04;3.17;;;1.20;;
67130;SDS011;54051;53.464;49.532;2022-10-29T11:59:42;3.33;;;1.20;;
67130;SDS011;54051;53.464;49.532;2022-10-29T12:15:42;3.28;;;1.23;;
67130;SDS011;54051;53.464;49.532;2022-10-29T12:18:23;3.10;;;1.15;;
67130;SDS011;54051;53.464;49.532;2022-10-29T12:28:46;4.40;;;1.30;;
67130;SDS011;54051;53.464;49.532;2022-10-29T12:34:05;4.05;;;1.50;;
67130;SDS011;54051;53.464;49.532;2022-10-29T12:39:04;3.90;;;1.50;;
67130;SDS011;54051;53.464;49.532;2022-10-29T12:41:42;3.92;;;1.50;;
67130;SDS011;54051;53.464;49.532;2022-10-29T12:47:17;3.83;;;1.63;;
67130;SDS011;54051;53.464;49.532;2022-10-29T12:52:45;4.30;;;1.60;;
67130;SDS011;54051;53.464;49.532;2022-10-29T12:55:18;3.97;;;1.60;;
67130;SDS011;54051;53.464;49.532;2022-10-29T12:57:44;4.15;;;1.60;;
67130;SDS011;54051;53.464;49.532;2022-10-29T13:02:54;4.05;;;1.60;;
67130;SDS011;54051;53.464;49.532;2022-10-29T13:13:19;3.78;;;1.50;;
67130;SDS011;54051;53.464;49.532;2022-10-29T13:15:56;4.07;;;1.65;;
67130;SDS011;54051;53.464;49.532;2022-10-29T13:24:19;4.13;;;1.20;;
67130;SDS011;54051;53.464;49.532;2022-10-29T13:29:44;3.47;;;1.30;;
67130;SDS011;54051;53.464;49.532;2022-10-29T13:32:28;3.80;;;1.35;;
67130;SDS011;54051;53.464;49.532;2022-10-29T13:34:59;3.70;;;1.25;;
67130;SDS011;54051;53.464;49.532;2022-10-29T13:45:30;3.63;;;1.20;;
67130;SDS011;54051;53.464;49.532;2022-10-29T13:47:59;3.40;;;1.10;;
67130;SDS011;54051;53.464;49.532;2022-10-29T13:50:28;5.20;;;1.58;;
67130;SDS011;54051;53.464;49.532;2022-10-29T13:52:56;3.63;;;1.40;;
67130;SDS011;54051;53.464;49.532;2022-10-29T13:55:25;4.50;;;1.50;;
67130;SDS011;54051;53.464;49.532;2022-10-29T13:58:11;3.58;;;1.40;;
67130;SDS011;54051;53.464;49.532;2022-10-29T14:00:40;3.85;;;1.30;;
67130;SDS011;54051;53.464;49.532;2022-10-29T14:03:15;3.80;;;1.40;;
67130;SDS011;54051;53.464;49.532;2022-10-29T14:05:50;3.70;;;1.30;;
67130;SDS011;54051;53.464;49.532;2022-10-29T14:08:33;3.78;;;1.30;;
67130;SDS011;54051;53.464;49.532;2022-10-29T14:11:07;3.33;;;1.30;;
67130;SDS011;54051;53.464;49.532;2022-10-29T14:13:56;3.80;;;1.30;;
67130;SDS011;54051;53.464;49.532;2022-10-29T14:16:29;3.40;;;1.30;;
67130;SDS011;54051;53.464;49.532;2022-10-29T14:19:20;3.30;;;1.15;;
67130;SDS011;54051;53.464;49.532;2022-10-29T14:21:46;3.20;;;1.10;;
67130;SDS011;54051;53.464;49.532;2022-10-29T14:24:13;3.30;;;1.23;;
67130;SDS011;54051;53.464;49.532;2022-10-29T14:26:41;3.30;;;1.25;;
67130;SDS011;54051;53.464;49.532;2022-10-29T14:29:12;3.65;;;1.40;;
67130;SDS011;54051;53.464;49.532;2022-10-29T14:31:42;3.38;;;1.30;;
67130;SDS011;54051;53.464;49.532;2022-10-29T14:34:14;4.25;;;1.48;;
67130;SDS011;54051;53.464;49.532;2022-10-29T14:36:48;3.33;;;1.15;;
67130;SDS011;54051;53.464;49.532;2022-10-29T14:39:22;3.25;;;1.30;;
67130;SDS011;54051;53.464;49.532;2022-10-29T14:41:52;3.22;;;1.20;;
67130;SDS011;54051;53.464;49.532;2022-10-29T14:44:23;3.60;;;1.17;;
67130;SDS011;54051;53.464;49.532;2022-10-29T14:47:16;3.25;;;1.20;;
67130;SDS011;54051;53.464;49.532;2022-10-29T14:49:45;3.70;;;1.30;;
67130;SDS011;54051;53.464;49.532;2022-10-29T14:55:22;4.60;;;1.77;;
67130;SDS011;54051;53.464;49.532;2022-10-29T14:57:48;3.20;;;1.20;;
67130;SDS011;54051;53.464;49.532;2022-10-29T15:00:25;3.33;;;1.20;;
67130;SDS011;54051;53.464;49.532;2022-10-29T15:02:54;4.40;;;1.33;;
67130;SDS011;54051;53.464;49.532;2022-10-29T15:08:01;3.42;;;1.35;;
67130;SDS011;54051;53.464;49.532;2022-10-29T15:10:44;4.10;;;1.60;;
67130;SDS011;54051;53.464;49.532;2022-10-29T15:13:17;3.58;;;1.50;;
67130;SDS011;54051;53.464;49.532;2022-10-29T15:15:49;4.13;;;1.60;;
67130;SDS011;54051;53.464;49.532;2022-10-29T15:18:21;3.23;;;1.40;;
67130;SDS011;54051;53.464;49.532;2022-10-29T15:20:48;3.17;;;1.27;;
67130;SDS011;54051;53.464;49.532;2022-10-29T15:23:21;3.90;;;1.55;;
67130;SDS011;54051;53.464;49.532;2022-10-29T15:25:52;3.58;;;1.50;;
67130;SDS011;54051;53.464;49.532;2022-10-29T15:28:25;3.92;;;1.40;;
67130;SDS011;54051;53.464;49.532;2022-10-29T15:30:53;3.75;;;1.33;;
67130;SDS011;54051;53.464;49.532;2022-10-29T15:33:28;3.50;;;1.33;;
67130;SDS011;54051;53.464;49.532;2022-10-29T15:35:57;3.30;;;1.30;;
67130;SDS011;54051;53.464;49.532;2022-10-29T15:43:34;4.22;;;1.60;;
67130;SDS011;54051;53.464;49.532;2022-10-29T15:46:43;3.70;;;1.40;;
67130;SDS011;54051;53.464;49.532;2022-10-29T15:49:15;4.00;;;1.58;;
67130;SDS011;54051;53.464;49.532;2022-10-29T15:51:41;3.28;;;1.20;;
67130;SDS011;54051;53.464;49.532;2022-10-29T15:54:08;4.22;;;1.30;;
67130;SDS011;54051;53.464;49.532;2022-10-29T15:56:38;2.63;;;1.05;;
67130;SDS011;54051;53.464;49.532;2022-10-29T15:59:05;3.70;;;1.25;;
67130;SDS011;54051;53.464;49.532;2022-10-29T16:01:35;2.97;;;1.17;;
67130;SDS011;54051;53.464;49.532;2022-10-29T16:04:01;3.83;;;1.63;;
67130;SDS011;54051;53.464;49.532;2022-10-29T16:06:27;3.30;;;1.17;;
67130;SDS011;54051;53.464;49.532;2022-10-29T16:08:53;3.20;;;1.27;;
67130;SDS011;54051;53.464;49.532;2022-10-29T16:11:22;4.07;;;1.73;;
67130;SDS011;54051;53.464;49.532;2022-10-29T16:13:49;3.35;;;1.20;;
67130;SDS011;54051;53.464;49.532;2022-10-29T16:16:25;3.67;;;1.20;;
67130;SDS011;54051;53.464;49.532;2022-10-29T16:18:54;4.25;;;1.40;;
67130;SDS011;54051;53.464;49.532;2022-10-29T16:21:21;3.70;;;1.20;;
67130;SDS011;54051;53.464;49.532;2022-10-29T16:23:48;3.67;;;1.30;;
67130;SDS011;54051;53.464;49.532;2022-10-29T16:26:16;3.55;;;1.15;;
67130;SDS011;54051;53.464;49.532;2022-10-29T16:28:44;4.40;;;1.30;;
67130;SDS011;54051;53.464;49.532;2022-10-29T16:31:14;3.40;;;1.17;;
67130;SDS011;54051;53.464;49.532;2022-10-29T16:33:45;3.13;;;1.13;;
67130;SDS011;54051;53.464;49.532;2022-10-29T16:36:12;3.95;;;1.33;;
67130;SDS011;54051;53.464;49.532;2022-10-29T16:38:38;3.20;;;1.05;;
67130;SDS011;54051;53.464;49.532;2022-10-29T16:41:04;3.30;;;1.10;;
67130;SDS011;54051;53.464;49.532;2022-10-29T16:43:30;4.28;;;1.30;;
67130;SDS011;54051;53.464;49.532;2022-10-29T16:45:56;3.42;;;1.23;;
67130;SDS011;54051;53.464;49.532;2022-10-29T16:48:22;3.30;;;1.20;;
67130;SDS011;54051;53.464;49.532;2022-10-29T16:50:48;3.65;;;1.20;;
67130;SDS011;54051;53.464;49.532;2022-10-29T16:53:13;4.10;;;1.40;;
67130;SDS011;54051;53.464;49.532;2022-10-29T16:55:39;4.25;;;1.42;;
67130;SDS011;54051;53.464;49.532;2022-10-29T16:58:07;4.10;;;1.48;;
67130;SDS011;54051;53.464;49.532;2022-10-29T17:00:35;3.85;;;1.40;;
67130;SDS011;54051;53.464;49.532;2022-10-29T17:03:02;4.50;;;1.60;;
67130;SDS011;54051;53.464;49.532;2022-10-29T17:05:29;3.70;;;1.50;;
67130;SDS011;54051;53.464;49.532;2022-10-29T17:07:55;4.07;;;1.48;;
67130;SDS011;54051;53.464;49.532;2022-10-29T17:10:21;4.43;;;1.60;;
67130;SDS011;54051;53.464;49.532;2022-10-29T17:12:47;3.40;;;1.30;;
67130;SDS011;54051;53.464;49.532;2022-10-29T17:15:14;4.20;;;1.35;;
67130;SDS011;54051;53.464;49.532;2022-10-29T17:17:40;4.07;;;1.40;;
67130;SDS011;54051;53.464;49.532;2022-10-29T17:20:06;3.58;;;1.50;;
67130;SDS011;54051;53.464;49.532;2022-10-29T17:22:33;4.07;;;1.67;;
67130;SDS011;54051;53.464;49.532;2022-10-29T17:24:59;4.00;;;1.63;;
67130;SDS011;54051;53.464;49.532;2022-10-29T17:27:25;4.50;;;1.95;;
67130;SDS011;54051;53.464;49.532;2022-10-29T17:29:51;4.05;;;1.65;;
67130;SDS011;54051;53.464;49.532;2022-10-29T17:32:20;4.28;;;1.55;;
67130;SDS011;54051;53.464;49.532;2022-10-29T17:34:46;4.72;;;1.90;;
67130;SDS011;54051;53.464;49.532;2022-10-29T17:37:12;4.07;;;1.70;;
67130;SDS011;54051;53.464;49.532;2022-10-29T17:39:38;4.30;;;1.80;;
67130;SDS011;54051;53.464;49.532;2022-10-29T17:42:04;4.50;;;1.90;;
67130;SDS011;54051;53.464;49.532;2022-10-29T17:44:30;5.05;;;2.05;;
67130;SDS011;54051;53.464;49.532;2022-10-29T17:46:58;5.10;;;2.13;;
67130;SDS011;54051;53.464;49.532;2022-10-29T17:49:24;5.05;;;2.10;;
67130;SDS011;54051;53.464;49.532;2022-10-29T17:51:51;5.30;;;2.05;;
67130;SDS011;54051;53.464;49.532;2022-10-29T17:54:17;4.87;;;2.20;;